Ana Sayfa
METAR-TAF:

METAR-TAF

Havaalanları :

Florești, Moldova

Enlem: 47-51-45N, Boylam: 028-12-45E, yükseklik: 101 m

Güncel hava durumu gözlemi

Rapor saat 08:30 UTC de 7 saat ve 20 dakika önce yapıldı.
Rüzgar kuzey/kuzeydoğudan 12 kt
Sıcaklık 25°C
Nem 44%
Basınç 1022 hPa
Görüş mesafesi 10 km veya daha fazla
4900 ft yükseklikte az bulutlu

METAR: LUBM 260830Z 02012KT 9999 FEW049 25/12 Q1022 R25/CLRD65

Saat: 18:50 (15:50 UTC)


TAF: eksik

4.000'den fazla havaalanı için hava durumu gözlemleri ve tahminleri (METAR ve TAF raporları).

Kullanılabilir istasyonlar harita üzerinde sarı ve kırmızı noktalarla gösterilir.

İstasyonun adını görmek için fareyi noktanın üzerinde gezdirin.

Sonrasında hava gözlem ve tahminlerini görmek için tıklayın.

Haritayı değiştirmek için: yaklaştırmak için siyah artı işaretli yeşil düğmeye ve uzaklaştırmak için de eksi işaretli düğmeye hızla tıklayın; bitişik haritalar için yeşil okları kullanın.


METAR-TAF: